createdAt,value
2022-09-16T00:01:56.766Z,99630.56
2022-09-16T00:04:24.015Z,99630.56
2022-09-16T00:06:51.178Z,99633.44
2022-09-16T00:09:18.369Z,99635.88
2022-09-16T00:11:45.610Z,99633.56
2022-09-16T00:14:12.817Z,99635.59
2022-09-16T00:16:40.189Z,99640.16
2022-09-16T00:19:08.886Z,99641.16
2022-09-16T00:21:36.114Z,99646.97
2022-09-16T00:24:03.339Z,99648.09
2022-09-16T00:26:30.941Z,99648.63
2022-09-16T00:28:58.140Z,99646.34
2022-09-16T00:31:25.427Z,99649.63
2022-09-16T00:33:52.665Z,99643.19
2022-09-16T00:36:20.311Z,99641.75
2022-09-16T00:39:21.211Z,99633.06
2022-09-16T00:41:48.532Z,99640.47
2022-09-16T00:44:34.487Z,99639.38
2022-09-16T00:47:01.769Z,99648.38
2022-09-16T00:49:30.555Z,99649.78
2022-09-16T00:52:00.145Z,99648.06
2022-09-16T00:54:27.963Z,99652.31
2022-09-16T00:56:57.805Z,99655.59
2022-09-16T00:59:30.072Z,99647.53
2022-09-16T01:02:01.395Z,99657.41
2022-09-16T01:04:35.426Z,99656.66
2022-09-16T01:07:03.346Z,99658.94
2022-09-16T01:09:31.022Z,99665.00
2022-09-16T01:11:58.251Z,99660.09
2022-09-16T01:14:46.352Z,99658.66
2022-09-16T01:17:23.865Z,99649.84
2022-09-16T01:20:09.381Z,99644.38
2022-09-16T01:22:36.549Z,99649.50
2022-09-16T01:25:27.043Z,99646.97
2022-09-16T01:28:06.460Z,99647.31
2022-09-16T01:30:36.702Z,99648.31
2022-09-16T01:33:05.028Z,99663.13
2022-09-16T01:35:35.459Z,99659.06
2022-09-16T01:38:02.649Z,99660.53
2022-09-16T01:40:42.130Z,99655.28
2022-09-16T01:43:12.133Z,99653.03
2022-09-16T01:45:48.810Z,99654.56
2022-09-16T01:48:34.691Z,99654.22
2022-09-16T01:51:04.905Z,99654.03
2022-09-16T01:53:39.274Z,99654.16
2022-09-16T01:56:09.680Z,99649.69
2022-09-16T01:58:43.550Z,99649.81
2022-09-16T02:01:14.195Z,99644.97
2022-09-16T02:03:44.621Z,99655.28
2022-09-16T02:06:17.852Z,99654.09
2022-09-16T02:08:53.720Z,99660.31
2022-09-16T02:11:21.715Z,99657.56
2022-09-16T02:14:06.826Z,99661.47
2022-09-16T02:16:46.613Z,99665.41
2022-09-16T02:19:17.647Z,99662.78
2022-09-16T02:21:46.287Z,99656.94
2022-09-16T02:24:17.745Z,99653.75
2022-09-16T02:26:47.961Z,99649.13
2022-09-16T02:29:19.453Z,99642.84
2022-09-16T02:31:47.359Z,99644.97
2022-09-16T02:34:16.721Z,99642.69
2022-09-16T02:36:45.707Z,99646.31
2022-09-16T02:39:20.331Z,99647.09
2022-09-16T02:41:48.632Z,99649.88
2022-09-16T02:44:16.072Z,99638.91
2022-09-16T02:46:55.618Z,99644.13
2022-09-16T02:49:43.079Z,99632.44
2022-09-16T02:52:28.312Z,99633.03
2022-09-16T02:54:58.188Z,99637.72
2022-09-16T02:57:25.393Z,99635.16
2022-09-16T02:59:53.485Z,99634.69
2022-09-16T03:02:21.315Z,99634.09
2022-09-16T03:04:49.043Z,99631.53
2022-09-16T03:07:16.696Z,99631.53
2022-09-16T03:09:44.490Z,99642.00
2022-09-16T03:12:17.650Z,99625.19
2022-09-16T03:14:51.032Z,99620.38
2022-09-16T03:17:38.845Z,99623.84
2022-09-16T03:20:24.557Z,99631.25
2022-09-16T03:22:51.676Z,99633.94
2022-09-16T03:25:27.372Z,99632.00
2022-09-16T03:28:13.071Z,99623.91
2022-09-16T03:30:48.579Z,99630.63
2022-09-16T03:33:21.849Z,99633.56
2022-09-16T03:35:50.479Z,99623.72
2022-09-16T03:38:19.248Z,99627.22
2022-09-16T03:40:47.230Z,99626.59
2022-09-16T03:43:16.107Z,99633.59
2022-09-16T03:45:43.838Z,99631.63
2022-09-16T03:48:11.895Z,99625.72
2022-09-16T03:50:39.145Z,99629.50
2022-09-16T03:53:06.327Z,99632.97
2022-09-16T03:55:33.597Z,99641.09
2022-09-16T03:58:00.727Z,99636.66
2022-09-16T04:00:29.197Z,99641.84
2022-09-16T04:02:56.528Z,99637.97
2022-09-16T04:05:23.829Z,99636.63
2022-09-16T04:07:51.156Z,99628.44
2022-09-16T04:10:18.887Z,99630.69
2022-09-16T04:12:46.133Z,99626.22
2022-09-16T04:15:13.280Z,99624.22
2022-09-16T04:17:40.501Z,99623.00
2022-09-16T04:20:08.379Z,99619.56
2022-09-16T04:22:35.673Z,99619.44
2022-09-16T04:25:03.817Z,99621.47
2022-09-16T04:27:30.999Z,99617.84
2022-09-16T04:29:58.859Z,99625.47
2022-09-16T04:32:25.980Z,99616.19
2022-09-16T04:34:53.119Z,99616.53
2022-09-16T04:37:20.289Z,99619.22
2022-09-16T04:39:47.869Z,99625.06
2022-09-16T04:42:15.194Z,99616.66
2022-09-16T04:44:42.457Z,99619.41
2022-09-16T04:47:09.643Z,99627.59
2022-09-16T04:49:36.860Z,99631.16
2022-09-16T04:52:04.022Z,99637.56
2022-09-16T04:54:31.258Z,99627.78
2022-09-16T04:56:58.446Z,99637.47
2022-09-16T04:59:25.627Z,99641.19
2022-09-16T05:01:53.134Z,99647.97
2022-09-16T05:04:20.419Z,99646.97
2022-09-16T05:06:47.657Z,99652.66
2022-09-16T05:09:15.112Z,99656.94
2022-09-16T05:11:42.344Z,99655.56
2022-09-16T05:14:14.171Z,99656.63
2022-09-16T05:16:41.758Z,99658.44
2022-09-16T05:19:10.858Z,99662.13
2022-09-16T05:21:38.225Z,99667.81
2022-09-16T05:24:08.685Z,99664.38
2022-09-16T05:26:36.905Z,99665.09
2022-09-16T05:29:05.890Z,99661.28
2022-09-16T05:31:35.121Z,99659.97
2022-09-16T05:34:03.998Z,99665.03
2022-09-16T05:36:32.608Z,99659.44
2022-09-16T05:39:21.680Z,99662.16
2022-09-16T05:41:54.337Z,99665.44
2022-09-16T05:44:21.507Z,99662.00
2022-09-16T05:46:48.715Z,99670.72
2022-09-16T05:49:20.711Z,99655.94
2022-09-16T05:51:48.704Z,99649.59
2022-09-16T05:54:18.589Z,99653.94
2022-09-16T05:56:46.778Z,99662.66
2022-09-16T05:59:14.665Z,99656.13
2022-09-16T06:01:41.980Z,99657.38
2022-09-16T06:04:11.309Z,99660.63
2022-09-16T06:06:39.679Z,99648.44
2022-09-16T06:09:11.688Z,99647.81
2022-09-16T06:11:40.822Z,99650.75
2022-09-16T06:14:08.617Z,99651.88
2022-09-16T06:16:36.221Z,99649.06
2022-09-16T06:19:05.244Z,99644.69
2022-09-16T06:21:32.515Z,99647.63
2022-09-16T06:23:59.750Z,99655.59
2022-09-16T06:26:27.591Z,99650.81
2022-09-16T06:28:55.687Z,99643.00
2022-09-16T06:31:24.286Z,99648.59
2022-09-16T06:33:52.096Z,99644.34
2022-09-16T06:36:20.166Z,99643.94
2022-09-16T06:38:47.951Z,99648.59
2022-09-16T06:41:16.245Z,99648.75
2022-09-16T06:43:44.171Z,99646.50
2022-09-16T06:46:19.213Z,99644.81
2022-09-16T06:48:47.482Z,99644.94
2022-09-16T06:51:16.549Z,99636.00
2022-09-16T06:53:44.333Z,99643.13
2022-09-16T06:56:13.470Z,99647.44
2022-09-16T06:58:42.265Z,99646.84
2022-09-16T07:01:11.040Z,99646.59
2022-09-16T07:03:39.424Z,99646.44
2022-09-16T07:06:07.248Z,99648.56
2022-09-16T07:08:35.430Z,99648.28
2022-09-16T07:11:04.152Z,99644.72
2022-09-16T07:13:31.287Z,99640.41
2022-09-16T07:16:14.194Z,99638.13
2022-09-16T07:18:42.034Z,99639.41
2022-09-16T07:21:12.332Z,99637.38
2022-09-16T07:23:40.157Z,99633.09
2022-09-16T07:26:07.366Z,99637.22
2022-09-16T07:28:34.783Z,99647.06
2022-09-16T07:31:02.924Z,99641.28
2022-09-16T07:33:30.828Z,99637.53
2022-09-16T07:35:59.221Z,99640.59
2022-09-16T07:38:26.951Z,99636.16
2022-09-16T07:40:54.183Z,99631.75
2022-09-16T07:43:21.704Z,99640.03
2022-09-16T07:45:55.544Z,99637.91
2022-09-16T07:48:22.878Z,99643.88
2022-09-16T07:50:57.403Z,99652.13
2022-09-16T07:53:28.970Z,99655.56
2022-09-16T07:56:00.864Z,99650.81
2022-09-16T07:58:28.055Z,99663.50
2022-09-16T08:00:55.312Z,99659.91
2022-09-16T08:03:22.673Z,99664.47
2022-09-16T08:05:49.880Z,99662.47
2022-09-16T08:08:17.130Z,99659.06
2022-09-16T08:10:52.396Z,99659.19
2022-09-16T08:13:19.605Z,99662.16
2022-09-16T08:15:46.873Z,99662.91
2022-09-16T08:18:14.360Z,99660.25
2022-09-16T08:20:41.575Z,99659.44
2022-09-16T08:23:08.903Z,99659.97
2022-09-16T08:25:36.480Z,99656.72
2022-09-16T08:28:04.382Z,99657.50
2022-09-16T08:30:31.654Z,99656.78
2022-09-16T08:32:59.472Z,99655.75
2022-09-16T08:35:26.871Z,99644.00
2022-09-16T08:37:54.113Z,99645.41
2022-09-16T08:40:23.425Z,99647.00
2022-09-16T08:43:03.966Z,99640.72
2022-09-16T08:46:26.456Z,99638.16
2022-09-16T08:51:47.010Z,99635.28
2022-09-16T08:54:27.373Z,99632.97
2022-09-16T08:56:57.854Z,99638.84
2022-09-16T08:59:27.746Z,99631.00
2022-09-16T09:02:17.309Z,99635.59
2022-09-16T09:04:44.964Z,99628.63
2022-09-16T09:07:18.239Z,99625.81
2022-09-16T09:10:15.266Z,99621.50
2022-09-16T09:13:09.765Z,99622.97
2022-09-16T09:15:41.988Z,99623.13
2022-09-16T09:18:18.136Z,99618.53
2022-09-16T09:21:04.145Z,99618.53
2022-09-16T09:23:52.356Z,99620.66
2022-09-16T09:26:22.524Z,99614.25
2022-09-16T09:29:01.317Z,99620.94
2022-09-16T09:31:47.770Z,99620.25
2022-09-16T09:34:24.265Z,99604.53
2022-09-16T09:36:57.677Z,99604.38
2022-09-16T09:39:31.086Z,99602.28
2022-09-16T09:42:04.215Z,99596.84
2022-09-16T09:44:31.417Z,99592.59
2022-09-16T09:47:01.796Z,99597.03
2022-09-16T09:49:31.883Z,99592.94
2022-09-16T09:52:11.909Z,99588.66
2022-09-16T09:54:41.445Z,99589.03
2022-09-16T09:57:14.313Z,99591.97
2022-09-16T09:59:50.396Z,99592.31
2022-09-16T10:02:19.834Z,99588.72
2022-09-16T10:04:47.508Z,99582.25
2022-09-16T10:07:17.507Z,99585.66
2022-09-16T10:09:47.484Z,99592.97
2022-09-16T10:12:14.734Z,99581.53
2022-09-16T10:14:41.980Z,99583.94
2022-09-16T10:17:16.059Z,99580.69
2022-09-16T10:19:57.800Z,99575.75
2022-09-16T10:22:32.790Z,99566.34
2022-09-16T10:25:01.882Z,99576.06
2022-09-16T10:27:36.499Z,99569.75
2022-09-16T10:30:15.424Z,99571.97
2022-09-16T10:32:48.053Z,99565.81
2022-09-16T10:35:38.535Z,99568.06
2022-09-16T10:38:16.687Z,99562.75
2022-09-16T10:40:54.111Z,99561.88
2022-09-16T10:43:24.239Z,99562.94
2022-09-16T10:45:52.880Z,99550.81
2022-09-16T10:48:21.952Z,99553.34
2022-09-16T10:50:55.093Z,99547.41
2022-09-16T10:53:39.090Z,99545.00
2022-09-16T10:56:29.397Z,99547.41
2022-09-16T10:59:09.784Z,99546.38
2022-09-16T11:01:56.279Z,99550.63
2022-09-16T11:04:42.493Z,99545.19
2022-09-16T11:07:28.450Z,99543.16
2022-09-16T11:09:55.684Z,99533.72
2022-09-16T11:12:34.920Z,99531.50
2022-09-16T11:15:22.823Z,99526.91
2022-09-16T11:17:50.025Z,99523.69
2022-09-16T11:20:17.308Z,99525.38
2022-09-16T11:22:56.364Z,99524.72
2022-09-16T11:25:32.913Z,99531.22
2022-09-16T11:28:09.647Z,99529.13
2022-09-16T11:30:40.592Z,99524.88
2022-09-16T11:33:17.398Z,99527.41
2022-09-16T11:36:04.054Z,99516.19
2022-09-16T11:38:43.827Z,99527.41
2022-09-16T11:41:23.373Z,99511.88
2022-09-16T11:44:00.174Z,99510.53
2022-09-16T11:46:27.621Z,99515.31
2022-09-16T11:49:04.041Z,99509.34
2022-09-16T11:51:50.271Z,99510.72
2022-09-16T11:54:36.674Z,99518.19
2022-09-16T11:57:08.929Z,99501.13
2022-09-16T11:59:48.798Z,99498.09
2022-09-16T12:02:15.980Z,99498.28
2022-09-16T12:04:57.428Z,99496.91
2022-09-16T12:07:31.189Z,99492.63
2022-09-16T12:10:08.193Z,99494.34
2022-09-16T12:12:38.542Z,99493.31
2022-09-16T12:15:09.998Z,99492.81
2022-09-16T12:17:41.050Z,99492.09
2022-09-16T12:20:17.208Z,99479.00
2022-09-16T12:22:44.447Z,99466.00
2022-09-16T12:25:34.372Z,99463.25
2022-09-16T12:28:04.923Z,99462.25
2022-09-16T12:30:44.461Z,99450.97
2022-09-16T12:33:18.428Z,99451.13
2022-09-16T12:36:00.165Z,99434.38
2022-09-16T12:38:27.468Z,99444.44
2022-09-16T12:41:06.785Z,99437.06
2022-09-16T12:43:43.025Z,99430.03
2022-09-16T12:46:10.290Z,99429.03
2022-09-16T12:48:37.522Z,99424.56
2022-09-16T12:51:19.969Z,99429.66
2022-09-16T12:54:02.555Z,99419.63
2022-09-16T12:56:39.585Z,99416.19
2022-09-16T12:59:16.174Z,99406.84
2022-09-16T13:01:46.069Z,99412.97
2022-09-16T13:04:27.781Z,99411.75
2022-09-16T13:06:56.540Z,99410.72
2022-09-16T13:09:23.917Z,99399.28
2022-09-16T13:12:31.879Z,99393.25
2022-09-16T13:14:44.488Z,99397.03
2022-09-16T13:17:12.425Z,99390.41
2022-09-16T13:19:44.527Z,99390.25
2022-09-16T13:22:11.775Z,99385.31
2022-09-16T13:24:40.474Z,99392.31
2022-09-16T13:27:26.808Z,99397.59
2022-09-16T13:30:05.743Z,99382.06
2022-09-16T13:32:38.788Z,99385.78
2022-09-16T13:35:21.832Z,99378.22
2022-09-16T13:37:50.766Z,99377.69
2022-09-16T13:40:21.652Z,99374.13
2022-09-16T13:42:48.832Z,99381.13
2022-09-16T13:45:34.752Z,99368.00
2022-09-16T13:48:09.237Z,99373.09
2022-09-16T13:50:37.154Z,99372.38
2022-09-16T13:53:24.739Z,99367.75
2022-09-16T13:55:53.377Z,99359.94
2022-09-16T13:58:28.416Z,99355.66
2022-09-16T14:01:12.148Z,99354.81
2022-09-16T14:03:39.283Z,99349.19
2022-09-16T14:06:09.468Z,99355.97
2022-09-16T14:08:44.017Z,99349.19
2022-09-16T14:11:30.047Z,99344.06
2022-09-16T14:14:05.853Z,99341.16
2022-09-16T14:16:34.566Z,99336.72
2022-09-16T14:19:04.971Z,99345.09
2022-09-16T14:21:32.334Z,99325.69
2022-09-16T14:24:29.069Z,99324.31
2022-09-16T14:26:57.391Z,99322.44
2022-09-16T14:29:25.150Z,99320.22
2022-09-16T14:31:53.556Z,99309.28
2022-09-16T14:34:29.889Z,99305.84
2022-09-16T14:36:57.224Z,99306.38
2022-09-16T14:39:25.739Z,99298.44
2022-09-16T14:41:55.235Z,99301.50
2022-09-16T14:44:25.337Z,99296.41
2022-09-16T14:47:04.639Z,99298.78
2022-09-16T14:49:38.067Z,99296.72
2022-09-16T14:52:05.216Z,99291.06
2022-09-16T14:54:32.564Z,99283.41
2022-09-16T14:57:06.855Z,99281.72
2022-09-16T14:59:38.241Z,99284.59
2022-09-16T15:02:15.989Z,99284.59
2022-09-16T15:04:45.286Z,99280.69
2022-09-16T15:07:18.323Z,99279.00
2022-09-16T15:09:52.167Z,99280.31
2022-09-16T15:12:22.401Z,99268.16
2022-09-16T15:14:49.725Z,99267.00
2022-09-16T15:17:19.020Z,99266.63
2022-09-16T15:19:50.424Z,99272.09
2022-09-16T15:22:17.959Z,99269.34
2022-09-16T15:24:47.531Z,99267.97
2022-09-16T15:27:21.151Z,99268.16
2022-09-16T15:29:51.919Z,99259.94
2022-09-16T15:32:21.060Z,99260.50
2022-09-16T15:34:49.620Z,99256.91
2022-09-16T15:37:28.607Z,99250.41
2022-09-16T15:39:55.812Z,99253.31
2022-09-16T15:42:26.076Z,99247.00
2022-09-16T15:44:54.583Z,99246.28
2022-09-16T15:47:23.965Z,99250.91
2022-09-16T15:49:54.083Z,99247.31
2022-09-16T15:52:23.179Z,99243.09
2022-09-16T15:54:56.159Z,99243.63
2022-09-16T15:57:23.281Z,99242.47
2022-09-16T15:59:54.733Z,99246.13
2022-09-16T16:02:40.577Z,99245.81
2022-09-16T16:05:09.137Z,99240.50
2022-09-16T16:07:49.562Z,99238.16
2022-09-16T16:10:20.815Z,99242.78
2022-09-16T16:12:49.329Z,99244.00
2022-09-16T16:15:18.780Z,99235.97
2022-09-16T16:17:47.069Z,99238.03
2022-09-16T16:20:15.090Z,99237.19
2022-09-16T16:22:46.445Z,99237.19
2022-09-16T16:25:14.039Z,99239.06
2022-09-16T16:27:41.320Z,99231.91
2022-09-16T16:30:09.175Z,99233.31
2022-09-16T16:32:38.798Z,99236.69
2022-09-16T16:35:06.366Z,99233.34
2022-09-16T16:37:45.958Z,99235.06
2022-09-16T16:40:21.834Z,99229.72
2022-09-16T16:42:49.005Z,99243.47
2022-09-16T16:45:16.698Z,99250.63
2022-09-16T16:47:44.464Z,99245.53
2022-09-16T16:50:11.617Z,99242.66
2022-09-16T16:52:39.069Z,99240.66
2022-09-16T16:55:06.807Z,99232.00
2022-09-16T16:57:34.016Z,99229.69
2022-09-16T17:00:01.293Z,99241.97
2022-09-16T17:02:28.598Z,99237.72
2022-09-16T17:04:55.848Z,99240.09
2022-09-16T17:07:27.621Z,99235.34
2022-09-16T17:09:57.527Z,99237.06
2022-09-16T17:12:25.326Z,99241.31
2022-09-16T17:14:52.685Z,99244.72
2022-09-16T17:17:19.926Z,99247.16
2022-09-16T17:19:47.178Z,99241.03
2022-09-16T17:22:14.493Z,99244.91
2022-09-16T17:24:41.670Z,99244.41
2022-09-16T17:27:08.790Z,99246.28
2022-09-16T17:29:36.091Z,99249.03
2022-09-16T17:32:03.471Z,99246.66
2022-09-16T17:34:31.202Z,99244.97
2022-09-16T17:36:58.708Z,99249.88
2022-09-16T17:39:26.252Z,99250.75
2022-09-16T17:41:56.557Z,99254.66
2022-09-16T17:44:24.805Z,99252.28
2022-09-16T17:46:51.919Z,99259.13
2022-09-16T17:49:21.567Z,99257.38
2022-09-16T17:51:49.528Z,99259.78
2022-09-16T17:54:16.915Z,99251.25
2022-09-16T17:56:44.515Z,99249.00
2022-09-16T17:59:12.597Z,99251.72
2022-09-16T18:01:40.209Z,99253.44
2022-09-16T18:04:07.992Z,99247.78
2022-09-16T18:06:39.773Z,99262.78
2022-09-16T18:09:07.414Z,99263.75
2022-09-16T18:11:35.672Z,99262.53
2022-09-16T18:14:04.185Z,99264.78
2022-09-16T18:16:31.836Z,99270.38
2022-09-16T18:19:00.244Z,99273.19
2022-09-16T18:21:27.810Z,99271.47
2022-09-16T18:23:56.322Z,99270.94
2022-09-16T18:26:24.047Z,99255.66
2022-09-16T18:29:09.633Z,99262.28
2022-09-16T18:31:39.147Z,99260.88
2022-09-16T18:34:06.733Z,99269.03
2022-09-16T18:36:35.231Z,99260.88
2022-09-16T18:39:02.531Z,99261.25
2022-09-16T18:41:31.797Z,99262.44
2022-09-16T18:44:00.263Z,99272.59
2022-09-16T18:46:31.715Z,99282.94
2022-09-16T18:48:59.463Z,99289.06
2022-09-16T18:51:37.121Z,99282.84
2022-09-16T18:54:06.314Z,99282.38
2022-09-16T18:56:34.649Z,99288.28
2022-09-16T18:59:20.873Z,99288.50
2022-09-16T19:01:50.484Z,99284.75
2022-09-16T19:04:19.067Z,99290.59
2022-09-16T19:06:48.658Z,99285.56
2022-09-16T19:09:16.945Z,99291.00
2022-09-16T19:11:44.262Z,99288.84
2022-09-16T19:14:15.466Z,99289.22
2022-09-16T19:16:43.615Z,99289.84
2022-09-16T19:19:11.770Z,99291.97
2022-09-16T19:21:39.290Z,99291.88
2022-09-16T19:24:07.679Z,99291.72
2022-09-16T19:26:36.257Z,99297.50
2022-09-16T19:29:06.934Z,99297.03
2022-09-16T19:31:35.320Z,99296.50
2022-09-16T19:34:02.761Z,99298.69
2022-09-16T19:36:30.762Z,99286.97
2022-09-16T19:38:58.293Z,99300.84
2022-09-16T19:41:27.819Z,99313.13
2022-09-16T19:43:56.006Z,99304.56
2022-09-16T19:46:23.953Z,99311.88
2022-09-16T19:48:52.173Z,99312.50
2022-09-16T19:51:20.530Z,99312.00
2022-09-16T19:53:49.230Z,99310.91
2022-09-16T19:56:18.479Z,99308.81
2022-09-16T19:58:45.800Z,99317.31
2022-09-16T20:01:14.748Z,99320.50
2022-09-16T20:03:45.780Z,99314.41
2022-09-16T20:06:14.485Z,99322.44
2022-09-16T20:08:42.713Z,99321.34
2022-09-16T20:11:14.457Z,99323.75
2022-09-16T20:13:42.000Z,99329.78
2022-09-16T20:16:09.994Z,99336.91
2022-09-16T20:18:37.334Z,99340.84
2022-09-16T20:21:05.810Z,99331.16
2022-09-16T20:23:33.946Z,99332.47
2022-09-16T20:26:02.334Z,99332.34
2022-09-16T20:28:36.901Z,99337.91
2022-09-16T20:31:04.866Z,99343.22
2022-09-16T20:33:33.574Z,99332.38
2022-09-16T20:36:10.854Z,99336.41
2022-09-16T20:38:38.974Z,99333.88
2022-09-16T20:41:07.309Z,99339.59
2022-09-16T20:43:35.317Z,99338.06
2022-09-16T20:46:05.395Z,99333.78
2022-09-16T20:48:32.987Z,99341.31
2022-09-16T20:51:04.380Z,99345.78
2022-09-16T20:53:31.730Z,99344.78
2022-09-16T20:56:06.489Z,99343.03
2022-09-16T20:58:34.440Z,99347.88
2022-09-16T21:01:07.891Z,99348.59
2022-09-16T21:03:35.209Z,99350.78
2022-09-16T21:06:06.605Z,99346.22
2022-09-16T21:08:35.158Z,99351.94
2022-09-16T21:11:11.551Z,99358.72
2022-09-16T21:13:42.746Z,99361.28
2022-09-16T21:16:11.717Z,99363.59
2022-09-16T21:18:39.469Z,99363.28
2022-09-16T21:21:06.729Z,99367.84
2022-09-16T21:23:34.693Z,99379.25
2022-09-16T21:26:12.408Z,99379.53
2022-09-16T21:28:40.149Z,99381.81
2022-09-16T21:31:10.623Z,99372.97
2022-09-16T21:33:37.829Z,99381.22
2022-09-16T21:36:05.901Z,99379.66
2022-09-16T21:38:33.513Z,99390.34
2022-09-16T21:41:02.366Z,99391.34
2022-09-16T21:43:32.412Z,99391.34
2022-09-16T21:46:00.454Z,99387.63
2022-09-16T21:48:28.979Z,99390.59
2022-09-16T21:51:01.165Z,99397.72
2022-09-16T21:53:30.098Z,99388.75
2022-09-16T21:56:07.260Z,99392.16
2022-09-16T21:58:34.750Z,99403.41
2022-09-16T22:01:14.497Z,99404.31
2022-09-16T22:03:42.330Z,99404.53
2022-09-16T22:06:10.602Z,99399.84
2022-09-16T22:08:38.023Z,99409.31
2022-09-16T22:11:09.856Z,99412.16
2022-09-16T22:13:37.458Z,99403.97
2022-09-16T22:16:06.648Z,99408.38
2022-09-16T22:18:35.019Z,99395.41
2022-09-16T22:21:03.380Z,99389.84
2022-09-16T22:23:30.646Z,99405.19
2022-09-16T22:25:57.837Z,99405.00
2022-09-16T22:28:25.052Z,99407.19
2022-09-16T22:30:52.339Z,99406.91
2022-09-16T22:33:19.469Z,99406.63
2022-09-16T22:35:46.617Z,99409.28
2022-09-16T22:38:13.775Z,99422.78
2022-09-16T22:40:40.988Z,99425.69
2022-09-16T22:43:08.446Z,99428.59
2022-09-16T22:45:35.734Z,99413.34
2022-09-16T22:48:04.383Z,99429.31
2022-09-16T22:50:31.758Z,99429.56
2022-09-16T22:52:58.942Z,99433.28
2022-09-16T22:55:26.682Z,99433.78
2022-09-16T22:57:53.946Z,99418.97
2022-09-16T23:00:21.129Z,99422.75
2022-09-16T23:02:49.136Z,99428.81
2022-09-16T23:05:16.346Z,99415.66
2022-09-16T23:07:43.950Z,99427.09
2022-09-16T23:10:11.721Z,99412.22
2022-09-16T23:12:40.194Z,99411.41
2022-09-16T23:15:09.113Z,99409.41
2022-09-16T23:17:36.437Z,99418.25
2022-09-16T23:20:03.705Z,99426.16
2022-09-16T23:22:31.004Z,99442.38
2022-09-16T23:24:58.684Z,99430.72
2022-09-16T23:27:25.948Z,99447.91
2022-09-16T23:29:53.087Z,99438.19
2022-09-16T23:32:20.545Z,99442.53
2022-09-16T23:34:47.876Z,99441.19
2022-09-16T23:37:15.078Z,99437.47
2022-09-16T23:39:42.245Z,99438.16
2022-09-16T23:42:12.039Z,99440.44
2022-09-16T23:44:39.166Z,99442.59
2022-09-16T23:47:06.995Z,99459.22
2022-09-16T23:49:34.118Z,99449.44
2022-09-16T23:52:01.308Z,99464.78
2022-09-16T23:54:28.441Z,99457.59
2022-09-16T23:56:55.688Z,99449.28
2022-09-16T23:59:22.821Z,99450.88
